Time;durP1;ratioP1;P1;durP2;ratioP2;P2;SDS_P1;SDS_P2;PMS_P1;PMS_P2;Temp;Humidity;BMP_temperature;BMP_pressure;BME280_temperature;BME280_humidity;BME280_pressure;Samples;Min_cycle;Max_cycle;Signal;HPM_P1;HPM_P2
2023/02/07 00:00:14;;;;;;;15.48;6.50;;;;;;;9.98;46.87;103693.72;5036777;28;20042;-66
2023/02/07 00:02:43;;;;;;;19.40;5.45;;;;;;;9.95;46.57;103680.44;5036582;28;20037;-66
2023/02/07 00:05:10;;;;;;;10.48;5.50;;;;;;;9.93;47.22;103677.84;5036727;28;20033;-66
2023/02/07 00:07:35;;;;;;;15.88;5.45;;;;;;;9.87;46.76;103683.41;5046721;28;20052;-65
2023/02/07 00:10:01;;;;;;;16.83;5.65;;;;;;;9.82;46.36;103684.50;5054916;28;20068;-64
2023/02/07 00:12:26;;;;;;;13.88;5.15;;;;;;;9.74;46.67;103687.41;5056222;28;20057;-66
2023/02/07 00:14:51;;;;;;;18.27;7.05;;;;;;;9.66;46.34;103684.13;5056107;28;20087;-66
2023/02/07 00:17:17;;;;;;;15.10;4.82;;;;;;;9.58;46.58;103679.97;5054914;28;20060;-65
2023/02/07 00:19:42;;;;;;;10.73;5.20;;;;;;;9.50;46.28;103685.59;5055243;28;20059;-65
2023/02/07 00:22:07;;;;;;;17.95;5.80;;;;;;;9.42;45.99;103676.97;5055948;28;20128;-65
2023/02/07 00:24:33;;;;;;;14.18;5.63;;;;;;;9.34;46.02;103677.22;5055754;28;20041;-65
2023/02/07 00:26:58;;;;;;;6.80;4.43;;;;;;;9.30;46.23;103675.56;5056019;28;20124;-66
2023/02/07 00:29:24;;;;;;;7.15;3.88;;;;;;;9.25;46.33;103680.19;5055448;28;20095;-65
2023/02/07 00:31:49;;;;;;;11.55;4.43;;;;;;;9.19;46.50;103676.84;5056195;28;20040;-66
2023/02/07 00:34:15;;;;;;;15.40;5.43;;;;;;;9.15;45.81;103670.75;5054634;28;20504;-65
2023/02/07 00:36:40;;;;;;;9.73;5.65;;;;;;;9.13;46.85;103666.34;5054590;28;20037;-66
2023/02/07 00:39:14;;;;;;;16.08;5.72;;;;;;;9.14;46.51;103674.31;5055641;28;20037;-65
2023/02/07 00:41:40;;;;;;;9.98;5.25;;;;;;;9.14;46.34;103673.44;5055818;28;20037;-66
2023/02/07 00:44:05;;;;;;;15.55;5.35;;;;;;;9.12;46.94;103665.50;5054096;28;20434;-65
2023/02/07 00:46:31;;;;;;;16.05;5.13;;;;;;;9.12;46.53;103653.91;5056061;28;20028;-65
2023/02/07 00:48:57;;;;;;;17.27;5.32;;;;;;;9.10;46.93;103661.13;5055211;28;20124;-66
2023/02/07 00:51:24;;;;;;;16.73;4.95;;;;;;;9.09;46.01;103664.72;5037310;28;20064;-65
2023/02/07 00:53:52;;;;;;;10.45;5.38;;;;;;;9.12;46.49;103672.63;5055467;28;20044;-64
2023/02/07 00:56:18;;;;;;;18.73;6.22;;;;;;;9.10;46.10;103667.31;5055247;28;20408;-66
2023/02/07 00:58:43;;;;;;;12.55;4.70;;;;;;;9.10;46.04;103669.16;5054260;28;20025;-66
2023/02/07 01:01:09;;;;;;;14.52;6.25;;;;;;;9.06;46.39;103670.16;5055183;28;20147;-65
2023/02/07 01:03:34;;;;;;;18.40;5.32;;;;;;;9.00;46.01;103681.91;5055075;28;20037;-65
2023/02/07 01:05:59;;;;;;;10.30;4.57;;;;;;;8.95;46.70;103675.84;5055152;28;20063;-65
2023/02/07 01:08:25;;;;;;;22.15;5.38;;;;;;;8.91;46.70;103681.31;5054803;28;20052;-66
2023/02/07 01:10:51;;;;;;;13.68;5.40;;;;;;;8.88;46.13;103676.09;5055605;28;20115;-65
2023/02/07 01:13:16;;;;;;;12.80;5.78;;;;;;;8.84;46.41;103674.44;5054938;28;20044;-66
2023/02/07 01:15:44;;;;;;;15.15;5.10;;;;;;;8.81;46.38;103690.56;5054918;28;20059;-66
2023/02/07 01:18:09;;;;;;;16.00;5.75;;;;;;;8.76;45.80;103688.94;5054891;28;20061;-65
2023/02/07 01:20:35;;;;;;;15.65;5.43;;;;;;;8.73;46.71;103686.34;5054241;28;20132;-65
2023/02/07 01:23:01;;;;;;;9.88;5.32;;;;;;;8.69;46.01;103691.81;5055238;28;20496;-66
2023/02/07 01:25:26;;;;;;;17.42;5.68;;;;;;;8.64;45.98;103693.75;5055710;28;20079;-66
2023/02/07 01:27:52;;;;;;;10.90;4.93;;;;;;;8.59;46.56;103674.31;5054599;28;20060;-65
2023/02/07 01:30:17;;;;;;;17.60;6.10;;;;;;;8.55;45.90;103676.19;5054681;28;20044;-65
2023/02/07 01:32:43;;;;;;;17.13;6.68;;;;;;;8.52;45.71;103678.97;5054751;28;20424;-66
2023/02/07 01:35:08;;;;;;;14.60;5.50;;;;;;;8.50;45.88;103680.81;5053206;28;20095;-66
2023/02/07 01:37:34;;;;;;;17.52;5.40;;;;;;;8.47;45.84;103690.69;5055173;28;20025;-65
2023/02/07 01:39:59;;;;;;;12.10;4.97;;;;;;;8.44;46.22;103682.78;5054293;28;20041;-64
2023/02/07 01:42:26;;;;;;;17.45;5.82;;;;;;;8.41;45.70;103686.41;5054146;28;20048;-64
2023/02/07 01:44:52;;;;;;;12.40;4.80;;;;;;;8.40;46.36;103687.34;5054675;28;20047;-65
2023/02/07 01:47:20;;;;;;;16.27;5.78;;;;;;;8.37;46.40;103684.78;5054421;28;20037;-65
2023/02/07 01:49:47;;;;;;;19.48;6.25;;;;;;;8.37;46.79;103682.09;5054718;28;20493;-66
2023/02/07 01:52:27;;;;;;;17.13;5.72;;;;;;;8.39;46.08;103687.38;5053229;28;20404;-64
2023/02/07 01:54:56;;;;;;;15.77;5.97;;;;;;;8.41;47.14;103669.50;5052698;28;20044;-66
2023/02/07 01:57:22;;;;;;;10.48;4.93;;;;;;;8.44;46.23;103667.63;5052941;28;20115;-66
2023/02/07 01:59:49;;;;;;;10.68;4.25;;;;;;;8.48;46.95;103687.13;5053000;28;20072;-65
2023/02/07 02:02:16;;;;;;;15.25;5.88;;;;;;;8.52;45.93;103691.44;5052815;28;20496;-65
2023/02/07 02:04:42;;;;;;;16.45;5.57;;;;;;;8.53;45.88;103690.53;5053598;28;20032;-64
2023/02/07 02:07:09;;;;;;;13.13;5.25;;;;;;;8.55;46.18;103684.22;5053980;28;20128;-65
2023/02/07 02:09:36;;;;;;;20.27;4.65;;;;;;;8.57;46.84;103682.38;5052577;28;20048;-66
2023/02/07 02:12:14;;;;;;;18.88;4.82;;;;;;;8.59;46.93;103679.66;5053864;28;20504;-65
2023/02/07 02:15:09;;;;;;;15.98;5.10;;;;;;;8.62;47.30;103668.88;5053938;28;20040;-65
2023/02/07 02:18:04;;;;;;;18.20;5.13;;;;;;;8.64;46.41;103667.03;5054126;28;20139;-66
2023/02/07 02:21:14;;;;;;;20.55;4.35;;;;;;;8.67;46.27;103672.28;5050592;28;20051;-65
2023/02/07 02:24:04;;;;;;;15.90;4.70;;;;;;;8.68;46.53;103666.03;5050257;28;20045;-65
2023/02/07 02:26:36;;;;;;;17.70;4.97;;;;;;;8.67;46.23;103662.47;5053589;28;20041;-66
2023/02/07 02:29:17;;;;;;;14.80;4.40;;;;;;;8.69;46.38;103655.28;5053946;28;20043;-65
2023/02/07 02:32:20;;;;;;;9.10;4.55;;;;;;;8.70;46.73;103651.69;5054191;28;20013;-65
2023/02/07 02:34:57;;;;;;;16.53;4.63;;;;;;;8.70;46.79;103659.72;5052591;28;20501;-65
2023/02/07 02:37:58;;;;;;;17.10;4.45;;;;;;;8.71;46.33;103657.88;5052347;28;20059;-64
2023/02/07 02:40:47;;;;;;;11.73;3.80;;;;;;;8.69;47.12;103668.63;5053281;28;20084;-64
2023/02/07 02:43:31;;;;;;;17.50;3.80;;;;;;;8.69;46.91;103665.09;5052094;28;20040;-65
2023/02/07 02:46:06;;;;;;;19.23;5.43;;;;;;;8.70;46.06;103666.84;5053321;28;20512;-65
2023/02/07 02:48:32;;;;;;;14.30;4.15;;;;;;;8.70;46.27;103661.50;5052028;28;20029;-65
2023/02/07 02:50:57;;;;;;;7.82;4.03;;;;;;;8.70;47.14;103661.50;5053216;28;20064;-64
2023/02/07 02:53:23;;;;;;;15.93;4.03;;;;;;;8.68;46.82;103669.56;5053409;28;20429;-64
2023/02/07 02:56:18;;;;;;;9.38;4.25;;;;;;;8.69;46.02;103667.75;5053685;28;20098;-65
2023/02/07 02:58:59;;;;;;;12.20;4.13;;;;;;;8.69;46.13;103665.97;5022620;28;20060;-64
2023/02/07 03:01:46;;;;;;;8.63;3.97;;;;;;;8.66;46.87;103660.72;5052150;28;20051;-66
2023/02/07 03:04:30;;;;;;;17.05;4.13;;;;;;;8.66;47.25;103659.84;5052878;28;20032;-65
2023/02/07 03:07:24;;;;;;;17.52;4.57;;;;;;;8.65;46.22;103669.66;5052399;28;20116;-65
2023/02/07 03:10:37;;;;;;;13.48;4.03;;;;;;;8.64;46.20;103670.59;5052176;28;20044;-66
2023/02/07 03:13:28;;;;;;;12.25;3.33;;;;;;;8.62;45.91;103668.88;5049671;28;20043;-65
2023/02/07 03:16:07;;;;;;;11.40;3.45;;;;;;;8.59;47.06;103663.63;5051565;28;20477;-65
2023/02/07 03:18:46;;;;;;;11.95;3.80;;;;;;;8.57;46.10;103661.00;5051688;28;20055;-65
2023/02/07 03:21:17;;;;;;;13.45;4.00;;;;;;;8.57;46.16;103661.00;5051546;28;20512;-64
2023/02/07 03:23:43;;;;;;;16.50;5.78;;;;;;;8.56;45.93;103659.25;5052493;28;20049;-64
2023/02/07 03:26:09;;;;;;;16.30;4.93;;;;;;;8.55;46.38;103659.28;5052635;28;20123;-65
2023/02/07 03:28:34;;;;;;;15.13;4.07;;;;;;;8.53;46.44;103654.00;5051962;28;20112;-65
2023/02/07 03:31:01;;;;;;;9.10;3.50;;;;;;;8.51;45.68;103650.53;5052382;28;20029;-64
2023/02/07 03:33:27;;;;;;;17.02;3.85;;;;;;;8.48;46.92;103650.59;5068325;28;20040;-65
2023/02/07 03:36:12;;;;;;;11.02;4.25;;;;;;;8.47;45.97;103659.53;5068283;28;20041;-66
2023/02/07 03:38:37;;;;;;;10.93;3.80;;;;;;;8.46;46.38;103641.75;5052799;28;20090;-65
2023/02/07 03:41:09;;;;;;;8.95;4.18;;;;;;;8.45;45.95;103639.13;5051586;28;20029;-65
2023/02/07 03:43:35;;;;;;;7.25;3.30;;;;;;;8.43;45.65;103639.16;5051743;28;20362;-65
2023/02/07 03:46:01;;;;;;;12.63;4.18;;;;;;;8.43;46.63;103649.84;5052706;28;20041;-66
2023/02/07 03:48:26;;;;;;;8.88;3.47;;;;;;;8.42;46.33;103650.78;5034796;28;20436;-65
2023/02/07 03:50:52;;;;;;;6.45;3.55;;;;;;;8.40;45.70;103647.28;5052709;28;20029;-66
2023/02/07 03:53:18;;;;;;;11.38;3.45;;;;;;;8.40;46.30;103654.44;5052785;28;20163;-66
2023/02/07 03:55:44;;;;;;;11.68;4.38;;;;;;;8.38;46.43;103649.13;5068187;28;20036;-66
2023/02/07 03:58:09;;;;;;;11.73;3.65;;;;;;;8.36;45.80;103652.75;5072444;28;20028;-65
2023/02/07 04:00:35;;;;;;;7.47;3.83;;;;;;;8.33;46.32;103656.41;5071592;28;20488;-65
2023/02/07 04:03:01;;;;;;;6.47;3.30;;;;;;;8.29;45.54;103653.88;5072479;28;20090;-66
2023/02/07 04:05:26;;;;;;;5.75;3.60;;;;;;;8.23;45.91;103652.22;5054557;28;20066;-64
2023/02/07 04:07:52;;;;;;;11.15;3.30;;;;;;;8.21;46.06;103646.03;5072619;28;20028;-65
2023/02/07 04:10:18;;;;;;;13.52;4.18;;;;;;;8.18;45.62;103652.34;5049162;28;20389;-65
2023/02/07 04:12:43;;;;;;;11.05;3.88;;;;;;;8.19;45.29;103650.53;5052336;28;20033;-66
2023/02/07 04:15:09;;;;;;;8.52;3.42;;;;;;;8.19;46.00;103653.22;5052511;28;20037;-65
2023/02/07 04:17:34;;;;;;;8.82;3.38;;;;;;;8.17;45.66;103655.94;5052582;28;20567;-64
2023/02/07 04:20:00;;;;;;;10.98;4.00;;;;;;;8.16;46.22;103642.63;5056101;28;20020;-65
2023/02/07 04:22:26;;;;;;;7.15;3.70;;;;;;;8.15;45.59;103640.91;5058191;28;20053;-66
2023/02/07 04:24:51;;;;;;;9.32;3.55;;;;;;;8.14;45.60;103644.47;5075731;28;20059;-64
2023/02/07 04:27:17;;;;;;;12.57;3.80;;;;;;;8.12;46.21;103643.66;5075675;28;20029;-66
2023/02/07 04:29:42;;;;;;;12.98;3.28;;;;;;;8.10;45.65;103634.78;5075651;28;20033;-64
2023/02/07 04:32:07;;;;;;;11.60;4.18;;;;;;;8.09;45.75;103636.59;5075543;28;20159;-65
2023/02/07 04:34:33;;;;;;;6.43;3.63;;;;;;;8.07;45.28;103638.41;5054946;28;20036;-65
2023/02/07 04:36:58;;;;;;;8.25;3.47;;;;;;;8.04;45.40;103643.00;5055837;28;20106;-64
2023/02/07 04:39:23;;;;;;;11.75;3.65;;;;;;;8.02;45.98;103647.47;5055428;28;20553;-65
2023/02/07 04:41:49;;;;;;;10.90;3.58;;;;;;;7.98;46.31;103645.84;5055488;28;20041;-63
2023/02/07 04:44:14;;;;;;;11.68;3.72;;;;;;;7.96;46.34;103640.53;5055433;28;20028;-65
2023/02/07 04:46:39;;;;;;;10.13;3.20;;;;;;;7.96;46.07;103650.31;5055821;28;20029;-65
2023/02/07 04:49:05;;;;;;;8.00;3.72;;;;;;;7.93;45.04;103647.72;5054157;28;20519;-65
2023/02/07 04:51:31;;;;;;;8.43;3.38;;;;;;;7.92;46.45;103638.88;5054136;28;20043;-65
2023/02/07 04:53:56;;;;;;;11.05;4.28;;;;;;;7.90;45.36;103631.84;5055569;28;20120;-64
2023/02/07 04:56:22;;;;;;;9.25;4.00;;;;;;;7.89;45.59;103632.75;5053951;28;20108;-65
2023/02/07 04:58:48;;;;;;;15.10;4.53;;;;;;;7.88;46.39;103639.88;5054346;28;20045;-65
2023/02/07 05:01:13;;;;;;;10.05;3.45;;;;;;;7.89;46.71;103646.09;5055140;28;20087;-65
2023/02/07 05:03:39;;;;;;;9.23;3.67;;;;;;;7.89;45.28;103649.63;5055217;28;20044;-65
2023/02/07 05:06:04;;;;;;;7.25;3.35;;;;;;;7.90;46.12;103645.19;5057181;28;20032;-66
2023/02/07 05:08:30;;;;;;;8.55;4.03;;;;;;;7.91;45.36;103638.91;5075080;28;20443;-64
2023/02/07 05:10:55;;;;;;;8.55;3.45;;;;;;;7.90;46.27;103632.69;5075345;28;20025;-64
2023/02/07 05:13:21;;;;;;;7.82;3.60;;;;;;;7.91;45.56;103641.56;5075064;28;20041;-64
2023/02/07 05:15:46;;;;;;;9.02;3.90;;;;;;;7.90;46.13;103642.50;5074934;28;20029;-65
2023/02/07 05:18:12;;;;;;;7.82;3.40;;;;;;;7.91;45.48;103637.13;5057166;28;20075;-63
2023/02/07 05:20:37;;;;;;;9.00;3.63;;;;;;;7.92;45.47;103643.34;5074945;28;20547;-64
2023/02/07 05:23:03;;;;;;;8.57;4.20;;;;;;;7.89;46.40;103638.97;5074385;28;20106;-66
2023/02/07 05:25:28;;;;;;;8.48;3.40;;;;;;;7.87;45.19;103642.59;5075466;28;20103;-66
2023/02/07 05:27:53;;;;;;;14.38;4.70;;;;;;;7.82;45.63;103648.03;5074527;28;20052;-66
2023/02/07 05:30:19;;;;;;;7.18;3.50;;;;;;;7.80;45.03;103654.34;5073965;28;20389;-64
2023/02/07 05:33:03;;;;;;;7.00;3.65;;;;;;;7.77;45.74;103660.63;5056459;28;20028;-65
2023/02/07 05:35:36;;;;;;;6.88;3.28;;;;;;;7.73;45.84;103667.00;5074511;28;20059;-65
2023/02/07 05:38:04;;;;;;;7.25;3.20;;;;;;;7.71;46.24;103662.59;5074433;28;20099;-65
2023/02/07 05:40:30;;;;;;;10.13;3.85;;;;;;;7.69;46.14;103667.09;5056968;28;20044;-65
2023/02/07 05:42:55;;;;;;;7.15;3.70;;;;;;;7.66;45.12;103661.84;5074428;28;20059;-66
2023/02/07 05:45:21;;;;;;;9.90;3.42;;;;;;;7.66;45.21;103659.16;5056683;28;20549;-65
2023/02/07 05:47:46;;;;;;;9.57;4.13;;;;;;;7.62;45.92;103664.56;5074306;28;20060;-66
2023/02/07 05:50:12;;;;;;;6.88;3.17;;;;;;;7.56;45.90;103667.44;5072976;28;20028;-65
2023/02/07 05:52:38;;;;;;;11.55;3.25;;;;;;;7.54;45.94;103671.03;5074547;28;20085;-64
2023/02/07 05:55:04;;;;;;;12.40;3.42;;;;;;;7.51;44.81;103665.78;5073902;28;20032;-64
2023/02/07 05:57:30;;;;;;;8.02;4.25;;;;;;;7.49;45.31;103676.50;5074258;28;20036;-66
2023/02/07 05:59:55;;;;;;;15.20;3.78;;;;;;;7.47;45.18;103673.00;5074113;28;20098;-65
2023/02/07 06:02:21;;;;;;;12.65;3.53;;;;;;;7.45;46.00;103676.63;5074236;28;20480;-64
2023/02/07 06:04:46;;;;;;;12.18;3.97;;;;;;;7.42;45.23;103680.25;5074609;28;20084;-64
2023/02/07 06:07:11;;;;;;;10.75;4.15;;;;;;;7.41;45.35;103683.81;5073840;28;20040;-65
2023/02/07 06:09:37;;;;;;;11.90;4.97;;;;;;;7.41;45.58;103683.81;5073585;28;20416;-65
2023/02/07 06:12:02;;;;;;;8.75;3.55;;;;;;;7.40;45.74;103678.50;5064745;28;20036;-65
2023/02/07 06:14:28;;;;;;;10.80;3.85;;;;;;;7.41;46.23;103682.94;5054019;28;20032;-66
2023/02/07 06:16:53;;;;;;;10.27;4.57;;;;;;;7.40;45.21;103698.06;5054495;28;20116;-64
2023/02/07 06:19:18;;;;;;;13.85;4.47;;;;;;;7.38;44.87;103694.56;5053854;28;20428;-65
2023/02/07 06:21:44;;;;;;;10.35;4.15;;;;;;;7.39;45.77;103696.31;5053819;28;20091;-64
2023/02/07 06:24:09;;;;;;;11.50;4.45;;;;;;;7.37;44.96;103692.78;5053256;28;20055;-65
2023/02/07 06:26:35;;;;;;;11.23;4.07;;;;;;;7.37;44.53;103698.13;5053347;28;20033;-65
2023/02/07 06:29:00;;;;;;;13.38;5.72;;;;;;;7.37;45.88;103698.13;5054334;28;20087;-64
2023/02/07 06:31:26;;;;;;;10.25;4.32;;;;;;;7.36;45.47;103712.38;5054088;28;20102;-65
2023/02/07 06:33:51;;;;;;;8.25;4.85;;;;;;;7.35;45.80;103713.28;5051937;28;20467;-65
2023/02/07 06:36:16;;;;;;;9.90;4.85;;;;;;;7.36;45.04;103712.38;5052381;28;20097;-65
2023/02/07 06:38:42;;;;;;;13.00;5.25;;;;;;;7.37;45.25;103719.47;5053255;28;20467;-65
2023/02/07 06:41:10;;;;;;;12.98;6.07;;;;;;;7.34;44.75;103716.84;5051346;28;20036;-65
2023/02/07 06:43:39;;;;;;;13.43;5.35;;;;;;;7.32;46.16;103716.03;5053274;28;20509;-65
2023/02/07 06:46:05;;;;;;;9.23;4.57;;;;;;;7.29;45.96;103715.22;5051388;28;20055;-65
2023/02/07 06:48:30;;;;;;;12.38;4.60;;;;;;;7.26;45.01;103721.50;5052863;28;20124;-65
2023/02/07 06:50:55;;;;;;;14.65;4.65;;;;;;;7.27;44.65;103725.94;5052673;28;20123;-65
2023/02/07 06:53:21;;;;;;;10.70;4.57;;;;;;;7.24;45.88;103730.47;5036322;28;20125;-64
2023/02/07 06:55:46;;;;;;;11.15;4.30;;;;;;;7.20;45.30;103721.69;5033441;28;20033;-67
2023/02/07 06:58:12;;;;;;;13.00;4.45;;;;;;;7.19;45.02;103730.56;5032011;28;20041;-66
2023/02/07 07:00:37;;;;;;;15.35;4.70;;;;;;;7.20;45.97;103742.13;5051844;28;20502;-65
2023/02/07 07:03:03;;;;;;;9.90;4.32;;;;;;;7.19;44.69;103740.34;5061673;28;20033;-65
2023/02/07 07:05:29;;;;;;;11.27;4.53;;;;;;;7.17;46.13;103737.75;5053091;28;20033;-65
2023/02/07 07:07:55;;;;;;;11.40;4.30;;;;;;;7.16;46.05;103743.97;5055237;28;20366;-64
2023/02/07 07:10:20;;;;;;;9.75;3.90;;;;;;;7.16;45.46;103745.75;5072634;28;20123;-65
2023/02/07 07:12:46;;;;;;;11.05;4.50;;;;;;;7.15;45.05;103749.31;5072741;28;20139;-63
2023/02/07 07:15:11;;;;;;;10.40;4.75;;;;;;;7.13;46.44;103752.03;5073038;28;20557;-66
2023/02/07 07:17:37;;;;;;;12.63;5.22;;;;;;;7.13;45.72;103761.81;5060861;28;20516;-66
2023/02/07 07:20:02;;;;;;;12.18;4.13;;;;;;;7.12;46.20;103755.59;5053858;28;20043;-65
2023/02/07 07:22:28;;;;;;;15.80;4.35;;;;;;;7.13;46.34;103759.16;5069554;28;20049;-65
2023/02/07 07:24:54;;;;;;;9.02;4.50;;;;;;;7.14;45.54;103756.47;5052811;28;20389;-65
2023/02/07 07:27:19;;;;;;;10.50;4.10;;;;;;;7.15;45.71;103763.53;5052647;28;20052;-65
2023/02/07 07:29:45;;;;;;;17.85;6.05;;;;;;;7.21;45.55;103759.84;5071781;28;20061;-65
2023/02/07 07:32:11;;;;;;;9.32;4.32;;;;;;;7.26;44.84;103769.50;5072892;28;20025;-64
2023/02/07 07:34:36;;;;;;;11.77;5.40;;;;;;;7.30;44.98;103757.84;5073121;28;20040;-65
2023/02/07 07:37:02;;;;;;;9.52;4.97;;;;;;;7.35;45.83;103761.28;5072538;28;20029;-65
2023/02/07 07:39:27;;;;;;;14.77;3.90;;;;;;;7.41;45.56;103769.16;5072545;28;20139;-65
2023/02/07 07:41:53;;;;;;;12.35;4.15;;;;;;;7.47;45.70;103769.00;5054873;28;20039;-65
2023/02/07 07:44:18;;;;;;;14.43;7.18;;;;;;;7.53;45.87;103762.63;5038216;28;20052;-65
2023/02/07 07:46:44;;;;;;;9.38;4.60;;;;;;;7.60;45.68;103767.78;5073238;28;20082;-65
2023/02/07 07:49:09;;;;;;;11.15;5.00;;;;;;;7.70;45.95;103780.91;5072520;28;20037;-65
2023/02/07 07:51:34;;;;;;;14.73;4.43;;;;;;;7.79;45.84;103773.50;5072690;28;20039;-65
2023/02/07 07:54:00;;;;;;;10.60;4.93;;;;;;;7.89;44.88;103766.16;5057729;28;20396;-65
2023/02/07 07:56:28;;;;;;;17.25;5.68;;;;;;;7.98;45.67;103771.28;5056716;28;20037;-65
2023/02/07 07:58:53;;;;;;;13.27;4.90;;;;;;;8.08;44.71;103772.78;5056797;28;20047;-66
2023/02/07 08:01:19;;;;;;;11.68;4.85;;;;;;;8.18;45.78;103772.47;5056224;28;20420;-64
2023/02/07 08:03:44;;;;;;;10.57;4.40;;;;;;;8.28;44.76;103770.47;5056580;28;20047;-65
2023/02/07 08:06:10;;;;;;;11.38;4.07;;;;;;;8.39;45.21;103773.72;5055069;28;20401;-64
2023/02/07 08:08:35;;;;;;;8.82;4.30;;;;;;;8.47;45.02;103771.72;5056090;28;20516;-65
2023/02/07 08:11:02;;;;;;;10.00;4.05;;;;;;;8.55;44.98;103776.84;5055103;28;20043;-66
2023/02/07 08:13:27;;;;;;;12.45;4.20;;;;;;;8.63;44.84;103773.03;5056501;28;20481;-66
2023/02/07 08:15:53;;;;;;;13.82;4.85;;;;;;;8.68;44.72;103765.75;5055847;28;20094;-65
2023/02/07 08:18:18;;;;;;;8.02;4.53;;;;;;;8.73;45.61;103763.84;5054370;28;20043;-65
2023/02/07 08:20:44;;;;;;;11.30;4.75;;;;;;;8.78;45.62;103767.25;5054765;28;20086;-64
2023/02/07 08:23:10;;;;;;;11.07;4.18;;;;;;;8.83;45.52;103764.41;5055791;28;20422;-65
2023/02/07 08:25:36;;;;;;;11.80;4.30;;;;;;;8.87;44.86;103760.75;5056158;28;20045;-65
2023/02/07 08:28:01;;;;;;;12.10;4.85;;;;;;;8.92;45.58;103768.63;5055862;28;20044;-66
2023/02/07 08:30:26;;;;;;;10.02;4.75;;;;;;;8.97;44.75;103755.97;5055838;28;20084;-63
2023/02/07 08:32:54;;;;;;;10.57;4.57;;;;;;;9.03;44.53;103766.50;5055988;28;20033;-66
2023/02/07 08:35:19;;;;;;;8.90;3.75;;;;;;;9.09;45.29;103758.28;5054515;28;20114;-65
2023/02/07 08:37:45;;;;;;;8.93;4.15;;;;;;;9.15;44.68;103755.44;5055291;28;20108;-65
2023/02/07 08:40:11;;;;;;;8.48;4.32;;;;;;;9.22;45.14;103756.97;5055787;28;20408;-66
2023/02/07 08:42:36;;;;;;;9.35;3.85;;;;;;;9.32;45.33;103758.44;5055815;28;20036;-64
2023/02/07 08:45:04;;;;;;;7.45;4.03;;;;;;;9.43;45.24;103756.31;5055457;28;20087;-66
2023/02/07 08:47:29;;;;;;;14.93;5.05;;;;;;;9.56;44.28;103762.09;5055680;28;20519;-65
2023/02/07 08:49:55;;;;;;;12.93;5.25;;;;;;;9.70;44.84;103763.41;5055533;28;20033;-65
2023/02/07 08:52:20;;;;;;;6.43;3.83;;;;;;;9.82;44.21;103754.97;5055483;28;20560;-65
2023/02/07 08:54:46;;;;;;;9.63;4.90;;;;;;;9.95;44.18;103753.63;5055365;28;20041;-65
2023/02/07 08:57:11;;;;;;;13.27;4.45;;;;;;;10.10;44.14;103754.00;5055406;28;20035;-66
2023/02/07 08:59:36;;;;;;;16.40;4.82;;;;;;;10.25;43.94;103759.72;5055710;28;20039;-65
2023/02/07 09:02:02;;;;;;;7.57;3.33;;;;;;;10.41;44.30;103760.06;5055411;28;20021;-66
2023/02/07 09:04:27;;;;;;;8.85;4.05;;;;;;;10.57;44.00;103746.94;5054997;28;20082;-67
2023/02/07 09:06:53;;;;;;;13.68;4.78;;;;;;;10.76;43.89;103751.56;5055118;28;20561;-65
2023/02/07 09:09:18;;;;;;;9.50;5.00;;;;;;;11.00;44.23;103750.59;5054832;28;20508;-66
2023/02/07 09:11:44;;;;;;;10.60;4.57;;;;;;;11.25;43.73;103755.00;5053755;28;20049;-67
2023/02/07 09:14:09;;;;;;;9.48;4.25;;;;;;;11.49;43.83;103745.94;5054995;28;20512;-65
2023/02/07 09:16:35;;;;;;;14.27;4.20;;;;;;;11.77;43.05;103735.84;5053945;28;20074;-65
2023/02/07 09:19:00;;;;;;;11.23;4.25;;;;;;;12.07;43.06;103744.38;5053860;28;20385;-66
2023/02/07 09:21:25;;;;;;;9.77;4.78;;;;;;;12.35;42.85;103744.00;5054620;28;20036;-67
2023/02/07 09:23:52;;;;;;;11.90;4.30;;;;;;;12.62;43.45;103732.00;5053431;28;20049;-66
2023/02/07 09:26:20;;;;;;;14.77;4.75;;;;;;;12.88;43.22;103730.78;5054179;28;20029;-65
2023/02/07 09:28:45;;;;;;;7.57;4.43;;;;;;;13.12;42.89;103730.50;5053384;28;20082;-66
2023/02/07 09:31:12;;;;;;;8.07;4.55;;;;;;;13.40;41.46;103725.50;5054533;28;20041;-66
2023/02/07 09:33:37;;;;;;;15.40;4.53;;;;;;;13.71;42.45;103734.72;5054436;28;20085;-64
2023/02/07 09:36:03;;;;;;;5.70;3.58;;;;;;;14.03;42.49;103728.56;5054652;28;20036;-66
2023/02/07 09:38:29;;;;;;;6.57;4.28;;;;;;;14.37;40.63;103725.88;5054432;28;20477;-65
2023/02/07 09:40:56;;;;;;;9.57;4.13;;;;;;;14.72;40.68;103731.13;5053855;28;20029;-67
2023/02/07 09:43:41;;;;;;;8.63;4.50;;;;;;;15.15;40.61;103733.19;5053164;28;20099;-65
2023/02/07 09:46:14;;;;;;;6.95;4.05;;;;;;;15.63;40.47;103727.63;5054455;28;20029;-67
2023/02/07 09:49:05;;;;;;;8.93;3.90;;;;;;;15.98;39.21;103727.38;5036211;28;20047;-65
2023/02/07 09:51:33;;;;;;;10.52;4.50;;;;;;;16.35;39.41;103718.75;5054450;28;20528;-66
2023/02/07 09:54:10;;;;;;;12.10;4.85;;;;;;;16.75;39.86;103730.66;5053707;28;20561;-66
2023/02/07 09:56:36;;;;;;;7.43;3.90;;;;;;;17.12;39.71;103729.13;5053257;28;20040;-66
2023/02/07 09:59:02;;;;;;;11.20;5.30;;;;;;;17.47;38.82;103724.97;5053937;28;20021;-67
2023/02/07 10:01:37;;;;;;;7.65;4.00;;;;;;;17.89;38.31;103722.06;5054584;28;20025;-67
2023/02/07 10:04:21;;;;;;;9.65;3.88;;;;;;;18.33;38.05;103728.94;5052838;28;20033;-65
2023/02/07 10:06:52;;;;;;;11.10;3.67;;;;;;;18.66;37.51;103723.84;5054008;28;20041;-67
2023/02/07 10:09:21;;;;;;;5.43;3.55;;;;;;;18.99;37.23;103724.09;5053926;28;20056;-66
2023/02/07 10:12:01;;;;;;;8.30;4.25;;;;;;;19.29;37.09;103722.81;5052962;28;20043;-67
2023/02/07 10:14:41;;;;;;;8.43;3.28;;;;;;;19.64;36.49;103712.84;5053154;28;20151;-67
2023/02/07 10:17:12;;;;;;;7.95;3.47;;;;;;;19.87;35.82;103702.91;5033594;28;20040;-66
2023/02/07 10:19:47;;;;;;;5.88;3.95;;;;;;;20.10;36.13;103705.56;5034367;28;20072;-67
2023/02/07 10:22:25;;;;;;;7.97;4.32;;;;;;;20.33;35.95;103703.78;5033635;28;20057;-67
2023/02/07 10:25:00;;;;;;;5.53;3.67;;;;;;;20.51;35.34;103698.72;5032570;28;20124;-66
2023/02/07 10:27:31;;;;;;;6.72;3.40;;;;;;;20.70;35.52;103704.41;5032416;28;20091;-67
2023/02/07 10:30:03;;;;;;;4.80;3.42;;;;;;;20.85;34.95;103698.53;5032275;28;20124;-66
2023/02/07 10:32:35;;;;;;;7.15;3.83;;;;;;;20.97;34.78;103691.22;5033566;28;20481;-65
2023/02/07 10:35:14;;;;;;;5.53;3.33;;;;;;;21.05;34.57;103691.44;5052750;28;20070;-67
2023/02/07 10:37:41;;;;;;;7.18;3.38;;;;;;;21.13;33.96;103691.75;5038604;28;20021;-67
2023/02/07 10:40:14;;;;;;;10.07;4.07;;;;;;;21.20;33.67;103679.31;5052059;28;20102;-67
2023/02/07 10:42:40;;;;;;;;;;;;;;;21.30;34.38;103682.97;5048270;28;20049;-66
2023/02/07 10:45:06;;;;;;;5.85;3.20;;;;;;;21.36;33.76;103682.47;5058524;28;20394;-68
2023/02/07 10:47:37;;;;;;;6.88;3.03;;;;;;;21.37;34.17;103684.22;5055584;28;20048;-65
2023/02/07 10:50:09;;;;;;;5.38;3.25;;;;;;;21.45;33.92;103691.72;5035015;28;20029;-67
2023/02/07 10:52:48;;;;;;;5.63;3.67;;;;;;;21.61;34.06;103688.59;5068864;28;20033;-67
2023/02/07 10:55:18;;;;;;;5.35;2.60;;;;;;;21.74;33.00;103686.53;5053169;28;20044;-67
2023/02/07 10:57:54;;;;;;;5.38;2.97;;;;;;;21.86;33.12;103690.94;5053316;28;20037;-67
2023/02/07 11:00:31;;;;;;;4.18;2.65;;;;;;;21.97;32.81;103691.72;5053198;28;20103;-65
2023/02/07 11:03:10;;;;;;;4.43;2.58;;;;;;;21.99;32.61;103694.34;5053157;28;20037;-67
2023/02/07 11:05:49;;;;;;;5.13;2.83;;;;;;;21.94;33.21;103693.88;5068484;28;20033;-67
2023/02/07 11:08:24;;;;;;;11.73;2.67;;;;;;;21.87;32.00;103684.47;5053069;28;20021;-66
2023/02/07 11:10:52;;;;;;;3.03;2.35;;;;;;;21.83;32.18;103686.56;5060662;28;20036;-67
2023/02/07 11:13:21;;;;;;;6.20;2.40;;;;;;;21.83;31.97;103685.72;5054141;28;20033;-64
2023/02/07 11:15:49;;;;;;;5.43;2.45;;;;;;;21.82;32.54;103681.25;5073395;28;20044;-65
2023/02/07 11:18:40;;;;;;;4.35;2.17;;;;;;;21.75;32.43;103682.78;5072890;28;20035;-66
2023/02/07 11:21:26;;;;;;;3.90;2.88;;;;;;;21.67;31.42;103674.38;5045425;28;20041;-65
2023/02/07 11:23:52;;;;;;;7.47;2.35;;;;;;;21.63;32.30;103678.41;5041816;28;20049;-66
2023/02/07 11:26:19;;;;;;;2.40;2.13;;;;;;;21.60;31.32;103665.88;5051926;28;20115;-67
2023/02/07 11:28:46;;;;;;;3.35;2.33;;;;;;;21.60;31.10;103667.75;5054180;28;20025;-66
2023/02/07 11:31:13;;;;;;;3.15;2.33;;;;;;;21.53;31.51;103671.97;5056892;28;20034;-69
2023/02/07 11:33:39;;;;;;;3.90;2.70;;;;;;;21.48;31.60;103669.66;5057306;28;20110;-68